sensor_id;sensor_type;location;lat;lon;timestamp;P1;durP1;ratioP1;P2;durP2;ratioP2
44925;SDS011;30662;51.210;7.656;2024-03-23T00:53:51;13.98;;;7.47;;
44925;SDS011;30662;51.210;7.656;2024-03-23T00:56:17;14.85;;;7.95;;
44925;SDS011;30662;51.210;7.656;2024-03-23T00:58:43;14.60;;;7.10;;
44925;SDS011;30662;51.210;7.656;2024-03-23T01:01:09;9.88;;;6.50;;
44925;SDS011;30662;51.210;7.656;2024-03-23T01:03:34;13.95;;;6.85;;
44925;SDS011;30662;51.210;7.656;2024-03-23T01:06:00;9.68;;;6.03;;
44925;SDS011;30662;51.210;7.656;2024-03-23T01:08:27;12.38;;;5.47;;
44925;SDS011;30662;51.210;7.656;2024-03-23T01:10:58;9.77;;;6.68;;
44925;SDS011;30662;51.210;7.656;2024-03-23T01:13:24;10.85;;;5.65;;
44925;SDS011;30662;51.210;7.656;2024-03-23T01:15:50;10.82;;;6.68;;
44925;SDS011;30662;51.210;7.656;2024-03-23T01:18:16;10.88;;;6.13;;
44925;SDS011;30662;51.210;7.656;2024-03-23T01:20:42;10.02;;;6.18;;
44925;SDS011;30662;51.210;7.656;2024-03-23T01:23:10;10.02;;;5.57;;
44925;SDS011;30662;51.210;7.656;2024-03-23T01:25:35;12.90;;;6.68;;
44925;SDS011;30662;51.210;7.656;2024-03-23T01:28:03;8.63;;;6.32;;
44925;SDS011;30662;51.210;7.656;2024-03-23T01:30:29;11.80;;;6.70;;
44925;SDS011;30662;51.210;7.656;2024-03-23T01:32:54;10.70;;;4.78;;
44925;SDS011;30662;51.210;7.656;2024-03-23T01:35:20;5.13;;;4.20;;
44925;SDS011;30662;51.210;7.656;2024-03-23T01:37:46;8.82;;;4.70;;
44925;SDS011;30662;51.210;7.656;2024-03-23T01:40:12;9.40;;;4.38;;
44925;SDS011;30662;51.210;7.656;2024-03-23T01:42:37;9.85;;;4.18;;
44925;SDS011;30662;51.210;7.656;2024-03-23T01:45:05;6.88;;;3.47;;
44925;SDS011;30662;51.210;7.656;2024-03-23T01:47:33;8.07;;;3.70;;
44925;SDS011;30662;51.210;7.656;2024-03-23T01:49:59;5.07;;;3.40;;
44925;SDS011;30662;51.210;7.656;2024-03-23T01:52:25;8.65;;;3.67;;
44925;SDS011;30662;51.210;7.656;2024-03-23T01:54:51;6.53;;;4.10;;
44925;SDS011;30662;51.210;7.656;2024-03-23T01:57:17;5.85;;;4.00;;
44925;SDS011;30662;51.210;7.656;2024-03-23T01:59:43;9.57;;;4.00;;
44925;SDS011;30662;51.210;7.656;2024-03-23T02:02:10;7.90;;;3.88;;
44925;SDS011;30662;51.210;7.656;2024-03-23T02:04:36;12.27;;;3.70;;
44925;SDS011;30662;51.210;7.656;2024-03-23T02:07:01;9.02;;;4.47;;
44925;SDS011;30662;51.210;7.656;2024-03-23T02:09:27;6.78;;;3.22;;
44925;SDS011;30662;51.210;7.656;2024-03-23T02:11:54;9.93;;;3.75;;
44925;SDS011;30662;51.210;7.656;2024-03-23T02:14:20;7.75;;;3.95;;
44925;SDS011;30662;51.210;7.656;2024-03-23T02:16:45;6.97;;;3.75;;
44925;SDS011;30662;51.210;7.656;2024-03-23T02:19:12;8.07;;;4.15;;
44925;SDS011;30662;51.210;7.656;2024-03-23T02:21:38;8.25;;;4.38;;
44925;SDS011;30662;51.210;7.656;2024-03-23T02:24:05;9.25;;;4.00;;
44925;SDS011;30662;51.210;7.656;2024-03-23T02:26:31;5.60;;;2.90;;
44925;SDS011;30662;51.210;7.656;2024-03-23T02:28:57;5.43;;;3.05;;
44925;SDS011;30662;51.210;7.656;2024-03-23T02:31:23;4.93;;;2.45;;
44925;SDS011;30662;51.210;7.656;2024-03-23T02:33:49;5.82;;;2.78;;
44925;SDS011;30662;51.210;7.656;2024-03-23T02:36:14;5.80;;;2.03;;
44925;SDS011;30662;51.210;7.656;2024-03-23T02:38:40;5.25;;;1.92;;
44925;SDS011;30662;51.210;7.656;2024-03-23T02:41:07;8.40;;;3.08;;
44925;SDS011;30662;51.210;7.656;2024-03-23T02:43:33;5.25;;;2.45;;
44925;SDS011;30662;51.210;7.656;2024-03-23T02:45:59;4.45;;;2.10;;
44925;SDS011;30662;51.210;7.656;2024-03-23T02:48:24;4.07;;;2.00;;
44925;SDS011;30662;51.210;7.656;2024-03-23T02:50:50;6.13;;;2.20;;
44925;SDS011;30662;51.210;7.656;2024-03-23T02:53:16;4.90;;;2.30;;
44925;SDS011;30662;51.210;7.656;2024-03-23T02:55:41;4.32;;;1.80;;
44925;SDS011;30662;51.210;7.656;2024-03-23T02:58:08;3.65;;;1.90;;
44925;SDS011;30662;51.210;7.656;2024-03-23T03:00:34;3.20;;;2.10;;
44925;SDS011;30662;51.210;7.656;2024-03-23T03:03:00;3.67;;;2.00;;
44925;SDS011;30662;51.210;7.656;2024-03-23T03:05:25;3.60;;;2.22;;
44925;SDS011;30662;51.210;7.656;2024-03-23T03:07:53;7.50;;;2.10;;
44925;SDS011;30662;51.210;7.656;2024-03-23T03:10:19;5.00;;;2.45;;
44925;SDS011;30662;51.210;7.656;2024-03-23T03:12:44;6.97;;;2.08;;
44925;SDS011;30662;51.210;7.656;2024-03-23T03:15:12;5.93;;;2.47;;
44925;SDS011;30662;51.210;7.656;2024-03-23T03:17:38;4.80;;;2.40;;
44925;SDS011;30662;51.210;7.656;2024-03-23T03:20:04;6.35;;;2.53;;
44925;SDS011;30662;51.210;7.656;2024-03-23T03:22:30;5.25;;;2.10;;
44925;SDS011;30662;51.210;7.656;2024-03-23T03:24:56;5.97;;;2.47;;
44925;SDS011;30662;51.210;7.656;2024-03-23T03:27:22;5.43;;;2.38;;
44925;SDS011;30662;51.210;7.656;2024-03-23T03:29:47;2.90;;;1.75;;
44925;SDS011;30662;51.210;7.656;2024-03-23T03:32:14;4.57;;;1.65;;
44925;SDS011;30662;51.210;7.656;2024-03-23T03:34:40;4.53;;;1.77;;
44925;SDS011;30662;51.210;7.656;2024-03-23T03:37:06;10.40;;;2.60;;
44925;SDS011;30662;51.210;7.656;2024-03-23T03:39:31;4.40;;;1.98;;
44925;SDS011;30662;51.210;7.656;2024-03-23T03:41:57;8.23;;;2.20;;
44925;SDS011;30662;51.210;7.656;2024-03-23T03:44:23;5.60;;;2.00;;
44925;SDS011;30662;51.210;7.656;2024-03-23T03:46:49;7.72;;;2.22;;
44925;SDS011;30662;51.210;7.656;2024-03-23T03:49:16;8.93;;;2.47;;
44925;SDS011;30662;51.210;7.656;2024-03-23T03:51:41;7.93;;;2.10;;
44925;SDS011;30662;51.210;7.656;2024-03-23T03:54:07;9.45;;;2.10;;
44925;SDS011;30662;51.210;7.656;2024-03-23T03:56:33;7.43;;;2.50;;
44925;SDS011;30662;51.210;7.656;2024-03-23T03:58:58;7.45;;;2.42;;
44925;SDS011;30662;51.210;7.656;2024-03-23T04:01:24;6.50;;;2.50;;
44925;SDS011;30662;51.210;7.656;2024-03-23T04:03:50;7.70;;;2.40;;
44925;SDS011;30662;51.210;7.656;2024-03-23T04:06:19;7.95;;;2.30;;
44925;SDS011;30662;51.210;7.656;2024-03-23T04:08:46;12.05;;;2.60;;
44925;SDS011;30662;51.210;7.656;2024-03-23T04:11:11;6.65;;;2.05;;
44925;SDS011;30662;51.210;7.656;2024-03-23T04:13:37;6.88;;;2.20;;
44925;SDS011;30662;51.210;7.656;2024-03-23T04:16:03;9.23;;;2.35;;
44925;SDS011;30662;51.210;7.656;2024-03-23T04:18:29;9.65;;;2.42;;
44925;SDS011;30662;51.210;7.656;2024-03-23T04:20:55;6.53;;;2.60;;
44925;SDS011;30662;51.210;7.656;2024-03-23T04:23:22;8.27;;;3.28;;
44925;SDS011;30662;51.210;7.656;2024-03-23T04:25:48;9.00;;;2.58;;
44925;SDS011;30662;51.210;7.656;2024-03-23T04:28:13;8.75;;;2.67;;
44925;SDS011;30662;51.210;7.656;2024-03-23T04:30:39;12.00;;;3.60;;
44925;SDS011;30662;51.210;7.656;2024-03-23T04:33:05;10.27;;;2.95;;
44925;SDS011;30662;51.210;7.656;2024-03-23T04:35:31;8.90;;;3.25;;
44925;SDS011;30662;51.210;7.656;2024-03-23T04:37:56;11.80;;;2.92;;
44925;SDS011;30662;51.210;7.656;2024-03-23T04:40:23;9.18;;;3.38;;
44925;SDS011;30662;51.210;7.656;2024-03-23T04:42:49;10.95;;;3.78;;
44925;SDS011;30662;51.210;7.656;2024-03-23T04:45:15;9.40;;;2.65;;
44925;SDS011;30662;51.210;7.656;2024-03-23T04:47:40;8.48;;;3.30;;
44925;SDS011;30662;51.210;7.656;2024-03-23T04:50:06;9.80;;;2.35;;
44925;SDS011;30662;51.210;7.656;2024-03-23T04:52:32;10.38;;;3.33;;
44925;SDS011;30662;51.210;7.656;2024-03-23T04:54:58;7.70;;;2.45;;
44925;SDS011;30662;51.210;7.656;2024-03-23T04:57:25;11.90;;;3.85;;
44925;SDS011;30662;51.210;7.656;2024-03-23T04:59:51;8.35;;;3.13;;
44925;SDS011;30662;51.210;7.656;2024-03-23T05:02:17;8.35;;;3.30;;
44925;SDS011;30662;51.210;7.656;2024-03-23T05:04:42;6.88;;;2.72;;
44925;SDS011;30662;51.210;7.656;2024-03-23T05:07:08;11.15;;;3.40;;
44925;SDS011;30662;51.210;7.656;2024-03-23T05:09:34;8.13;;;2.85;;
44925;SDS011;30662;51.210;7.656;2024-03-23T05:11:59;17.98;;;7.70;;
44925;SDS011;30662;51.210;7.656;2024-03-23T05:14:27;14.77;;;3.50;;
44925;SDS011;30662;51.210;7.656;2024-03-23T05:16:52;7.63;;;3.10;;
44925;SDS011;30662;51.210;7.656;2024-03-23T05:19:18;14.10;;;3.67;;
44925;SDS011;30662;51.210;7.656;2024-03-23T05:21:44;12.82;;;3.55;;
44925;SDS011;30662;51.210;7.656;2024-03-23T05:24:10;15.65;;;3.88;;
44925;SDS011;30662;51.210;7.656;2024-03-23T05:26:35;15.00;;;3.15;;
44925;SDS011;30662;51.210;7.656;2024-03-23T05:29:01;10.80;;;2.85;;
44925;SDS011;30662;51.210;7.656;2024-03-23T05:31:29;15.32;;;3.55;;
44925;SDS011;30662;51.210;7.656;2024-03-23T05:33:56;10.52;;;2.75;;
44925;SDS011;30662;51.210;7.656;2024-03-23T05:36:22;10.93;;;3.72;;
44925;SDS011;30662;51.210;7.656;2024-03-23T05:38:47;13.73;;;3.65;;
44925;SDS011;30662;51.210;7.656;2024-03-23T05:41:13;9.90;;;2.75;;
44925;SDS011;30662;51.210;7.656;2024-03-23T05:43:39;9.88;;;3.70;;
44925;SDS011;30662;51.210;7.656;2024-03-23T05:46:05;13.63;;;3.33;;
44925;SDS011;30662;51.210;7.656;2024-03-23T05:48:32;20.48;;;5.22;;
44925;SDS011;30662;51.210;7.656;2024-03-23T05:50:58;9.38;;;3.28;;
44925;SDS011;30662;51.210;7.656;2024-03-23T05:53:24;18.00;;;4.30;;
44925;SDS011;30662;51.210;7.656;2024-03-23T05:55:50;13.73;;;4.13;;
44925;SDS011;30662;51.210;7.656;2024-03-23T05:58:17;18.23;;;4.85;;
44925;SDS011;30662;51.210;7.656;2024-03-23T06:00:43;12.00;;;4.50;;
44925;SDS011;30662;51.210;7.656;2024-03-23T06:03:09;15.48;;;4.80;;
44925;SDS011;30662;51.210;7.656;2024-03-23T06:05:36;16.40;;;5.45;;
44925;SDS011;30662;51.210;7.656;2024-03-23T06:08:02;12.02;;;5.10;;
44925;SDS011;30662;51.210;7.656;2024-03-23T06:10:28;17.50;;;5.45;;
44925;SDS011;30662;51.210;7.656;2024-03-23T06:12:54;20.05;;;6.28;;
44925;SDS011;30662;51.210;7.656;2024-03-23T06:15:20;19.35;;;5.85;;
44925;SDS011;30662;51.210;7.656;2024-03-23T06:17:46;20.38;;;7.05;;
44925;SDS011;30662;51.210;7.656;2024-03-23T06:20:12;18.20;;;6.38;;
44925;SDS011;30662;51.210;7.656;2024-03-23T06:22:39;15.82;;;6.20;;
44925;SDS011;30662;51.210;7.656;2024-03-23T06:25:05;16.38;;;6.28;;
44925;SDS011;30662;51.210;7.656;2024-03-23T06:27:31;19.60;;;6.63;;
44925;SDS011;30662;51.210;7.656;2024-03-23T06:29:57;16.45;;;7.75;;
44925;SDS011;30662;51.210;7.656;2024-03-23T06:32:23;17.95;;;7.45;;
44925;SDS011;30662;51.210;7.656;2024-03-23T06:34:49;17.38;;;7.63;;
44925;SDS011;30662;51.210;7.656;2024-03-23T06:37:14;14.38;;;6.35;;
44925;SDS011;30662;51.210;7.656;2024-03-23T06:39:42;15.48;;;5.82;;
44925;SDS011;30662;51.210;7.656;2024-03-23T06:42:07;9.25;;;4.57;;
44925;SDS011;30662;51.210;7.656;2024-03-23T06:44:33;6.18;;;4.78;;
44925;SDS011;30662;51.210;7.656;2024-03-23T06:46:59;8.00;;;4.68;;
44925;SDS011;30662;51.210;7.656;2024-03-23T06:49:25;7.20;;;4.88;;
44925;SDS011;30662;51.210;7.656;2024-03-23T06:51:51;6.13;;;4.50;;
44925;SDS011;30662;51.210;7.656;2024-03-23T06:54:17;4.07;;;3.05;;
44925;SDS011;30662;51.210;7.656;2024-03-23T06:56:45;4.72;;;2.67;;
44925;SDS011;30662;51.210;7.656;2024-03-23T06:59:10;8.15;;;3.42;;
44925;SDS011;30662;51.210;7.656;2024-03-23T07:01:36;4.15;;;2.75;;
44925;SDS011;30662;51.210;7.656;2024-03-23T07:04:02;3.33;;;2.83;;
44925;SDS011;30662;51.210;7.656;2024-03-23T07:06:28;5.75;;;2.92;;
44925;SDS011;30662;51.210;7.656;2024-03-23T07:08:54;6.13;;;3.13;;
44925;SDS011;30662;51.210;7.656;2024-03-23T07:11:19;3.08;;;2.75;;
44925;SDS011;30662;51.210;7.656;2024-03-23T07:13:49;5.50;;;2.97;;
44925;SDS011;30662;51.210;7.656;2024-03-23T07:16:15;4.45;;;3.10;;
44925;SDS011;30662;51.210;7.656;2024-03-23T07:18:41;4.80;;;2.90;;
44925;SDS011;30662;51.210;7.656;2024-03-23T07:21:07;4.70;;;2.90;;
44925;SDS011;30662;51.210;7.656;2024-03-23T07:23:33;4.45;;;3.15;;
44925;SDS011;30662;51.210;7.656;2024-03-23T07:25:59;6.05;;;3.45;;
44925;SDS011;30662;51.210;7.656;2024-03-23T07:28:26;6.43;;;3.53;;
44925;SDS011;30662;51.210;7.656;2024-03-23T07:31:03;9.75;;;4.18;;
44925;SDS011;30662;51.210;7.656;2024-03-23T07:33:30;9.95;;;6.05;;
44925;SDS011;30662;51.210;7.656;2024-03-23T07:35:55;8.85;;;4.15;;
44925;SDS011;30662;51.210;7.656;2024-03-23T07:38:21;10.85;;;4.55;;
44925;SDS011;30662;51.210;7.656;2024-03-23T07:40:47;9.73;;;5.00;;
44925;SDS011;30662;51.210;7.656;2024-03-23T07:43:13;9.70;;;5.55;;
44925;SDS011;30662;51.210;7.656;2024-03-23T07:45:38;10.93;;;5.40;;
44925;SDS011;30662;51.210;7.656;2024-03-23T07:48:06;7.80;;;4.43;;
44925;SDS011;30662;51.210;7.656;2024-03-23T07:50:32;8.48;;;4.80;;
44925;SDS011;30662;51.210;7.656;2024-03-23T07:52:57;16.85;;;6.00;;
44925;SDS011;30662;51.210;7.656;2024-03-23T07:55:23;17.88;;;5.93;;
44925;SDS011;30662;51.210;7.656;2024-03-23T07:57:50;15.10;;;5.68;;
44925;SDS011;30662;51.210;7.656;2024-03-23T08:00:17;15.68;;;6.45;;
44925;SDS011;30662;51.210;7.656;2024-03-23T08:02:43;15.18;;;5.13;;
44925;SDS011;30662;51.210;7.656;2024-03-23T08:05:10;13.38;;;6.13;;
44925;SDS011;30662;51.210;7.656;2024-03-23T08:07:35;15.02;;;6.28;;
44925;SDS011;30662;51.210;7.656;2024-03-23T08:10:01;16.88;;;6.05;;
44925;SDS011;30662;51.210;7.656;2024-03-23T08:12:27;14.35;;;5.90;;
44925;SDS011;30662;51.210;7.656;2024-03-23T08:14:52;15.85;;;5.60;;
44925;SDS011;30662;51.210;7.656;2024-03-23T08:17:18;12.95;;;5.75;;
44925;SDS011;30662;51.210;7.656;2024-03-23T08:19:44;13.88;;;5.47;;
44925;SDS011;30662;51.210;7.656;2024-03-23T08:22:11;16.73;;;6.10;;
44925;SDS011;30662;51.210;7.656;2024-03-23T08:24:37;13.90;;;6.82;;
44925;SDS011;30662;51.210;7.656;2024-03-23T08:27:03;18.55;;;6.03;;
44925;SDS011;30662;51.210;7.656;2024-03-23T08:29:29;14.63;;;6.70;;
44925;SDS011;30662;51.210;7.656;2024-03-23T08:31:54;15.73;;;6.43;;
44925;SDS011;30662;51.210;7.656;2024-03-23T08:34:20;14.00;;;5.72;;
44925;SDS011;30662;51.210;7.656;2024-03-23T08:36:46;14.45;;;5.28;;
44925;SDS011;30662;51.210;7.656;2024-03-23T08:39:13;18.38;;;5.85;;
44925;SDS011;30662;51.210;7.656;2024-03-23T08:41:39;16.60;;;5.90;;
44925;SDS011;30662;51.210;7.656;2024-03-23T08:44:05;13.85;;;6.15;;
44925;SDS011;30662;51.210;7.656;2024-03-23T08:46:30;21.23;;;6.75;;
44925;SDS011;30662;51.210;7.656;2024-03-23T08:48:56;15.20;;;5.78;;
44925;SDS011;30662;51.210;7.656;2024-03-23T08:51:22;23.83;;;7.38;;
44925;SDS011;30662;51.210;7.656;2024-03-23T08:53:48;21.52;;;6.20;;
44925;SDS011;30662;51.210;7.656;2024-03-23T08:56:15;17.10;;;7.00;;
44925;SDS011;30662;51.210;7.656;2024-03-23T08:58:41;19.15;;;6.38;;
44925;SDS011;30662;51.210;7.656;2024-03-23T09:01:07;19.33;;;6.03;;
44925;SDS011;30662;51.210;7.656;2024-03-23T09:03:34;18.63;;;6.03;;
44925;SDS011;30662;51.210;7.656;2024-03-23T09:06:00;16.45;;;6.95;;
44925;SDS011;30662;51.210;7.656;2024-03-23T09:08:26;17.38;;;7.03;;
44925;SDS011;30662;51.210;7.656;2024-03-23T09:10:52;15.88;;;5.93;;
44925;SDS011;30662;51.210;7.656;2024-03-23T09:13:19;23.70;;;6.38;;
44925;SDS011;30662;51.210;7.656;2024-03-23T09:15:46;17.15;;;7.00;;
44925;SDS011;30662;51.210;7.656;2024-03-23T09:18:12;14.73;;;5.32;;
44925;SDS011;30662;51.210;7.656;2024-03-23T09:20:38;15.63;;;5.40;;
44925;SDS011;30662;51.210;7.656;2024-03-23T09:23:03;16.90;;;5.50;;
44925;SDS011;30662;51.210;7.656;2024-03-23T09:25:29;18.00;;;5.05;;
44925;SDS011;30662;51.210;7.656;2024-03-23T09:27:55;15.85;;;5.25;;
44925;SDS011;30662;51.210;7.656;2024-03-23T09:30:22;18.80;;;6.15;;
44925;SDS011;30662;51.210;7.656;2024-03-23T09:32:48;12.95;;;5.53;;
44925;SDS011;30662;51.210;7.656;2024-03-23T09:35:14;14.13;;;5.53;;
44925;SDS011;30662;51.210;7.656;2024-03-23T09:37:39;12.48;;;5.05;;
44925;SDS011;30662;51.210;7.656;2024-03-23T09:40:06;12.60;;;5.00;;
44925;SDS011;30662;51.210;7.656;2024-03-23T09:42:34;15.52;;;5.28;;
44925;SDS011;30662;51.210;7.656;2024-03-23T09:45:00;11.95;;;5.38;;
44925;SDS011;30662;51.210;7.656;2024-03-23T09:47:28;21.15;;;6.60;;
44925;SDS011;30662;51.210;7.656;2024-03-23T09:49:54;13.43;;;4.18;;
44925;SDS011;30662;51.210;7.656;2024-03-23T09:52:20;6.30;;;2.47;;
44925;SDS011;30662;51.210;7.656;2024-03-23T09:54:46;2.08;;;0.90;;
44925;SDS011;30662;51.210;7.656;2024-03-23T09:57:12;4.13;;;1.40;;
44925;SDS011;30662;51.210;7.656;2024-03-23T09:59:37;1.80;;;1.38;;
44925;SDS011;30662;51.210;7.656;2024-03-23T10:02:03;2.40;;;0.90;;
44925;SDS011;30662;51.210;7.656;2024-03-23T10:04:37;2.95;;;1.27;;
44925;SDS011;30662;51.210;7.656;2024-03-23T10:07:10;2.97;;;1.10;;
44925;SDS011;30662;51.210;7.656;2024-03-23T10:09:36;2.55;;;1.50;;
44925;SDS011;30662;51.210;7.656;2024-03-23T10:12:07;3.47;;;1.70;;
44925;SDS011;30662;51.210;7.656;2024-03-23T10:14:34;4.35;;;2.25;;
44925;SDS011;30662;51.210;7.656;2024-03-23T10:17:09;12.15;;;4.70;;
44925;SDS011;30662;51.210;7.656;2024-03-23T10:19:39;6.70;;;2.65;;
44925;SDS011;30662;51.210;7.656;2024-03-23T10:22:05;4.25;;;1.88;;
44925;SDS011;30662;51.210;7.656;2024-03-23T10:24:31;3.55;;;2.13;;
44925;SDS011;30662;51.210;7.656;2024-03-23T10:26:57;5.47;;;1.65;;
44925;SDS011;30662;51.210;7.656;2024-03-23T10:29:23;4.75;;;2.05;;
44925;SDS011;30662;51.210;7.656;2024-03-23T10:31:49;8.05;;;3.00;;
44925;SDS011;30662;51.210;7.656;2024-03-23T10:34:14;5.70;;;2.10;;
44925;SDS011;30662;51.210;7.656;2024-03-23T10:36:42;4.78;;;2.15;;
44925;SDS011;30662;51.210;7.656;2024-03-23T10:39:08;8.73;;;2.70;;
44925;SDS011;30662;51.210;7.656;2024-03-23T10:41:35;6.65;;;2.25;;
44925;SDS011;30662;51.210;7.656;2024-03-23T10:44:01;11.60;;;2.60;;
44925;SDS011;30662;51.210;7.656;2024-03-23T10:46:27;7.18;;;2.42;;
44925;SDS011;30662;51.210;7.656;2024-03-23T10:48:53;7.32;;;2.10;;
44925;SDS011;30662;51.210;7.656;2024-03-23T10:51:19;6.95;;;2.58;;
44925;SDS011;30662;51.210;7.656;2024-03-23T10:53:46;7.70;;;2.28;;
44925;SDS011;30662;51.210;7.656;2024-03-23T10:56:13;11.68;;;3.17;;
44925;SDS011;30662;51.210;7.656;2024-03-23T10:58:42;8.63;;;2.90;;
44925;SDS011;30662;51.210;7.656;2024-03-23T11:01:10;8.40;;;2.58;;
44925;SDS011;30662;51.210;7.656;2024-03-23T11:03:36;10.23;;;2.38;;
44925;SDS011;30662;51.210;7.656;2024-03-23T11:06:03;4.43;;;2.05;;
44925;SDS011;30662;51.210;7.656;2024-03-23T11:08:30;5.97;;;2.22;;
44925;SDS011;30662;51.210;7.656;2024-03-23T11:11:15;9.25;;;3.65;;
44925;SDS011;30662;51.210;7.656;2024-03-23T11:18:41;7.97;;;2.70;;
44925;SDS011;30662;51.210;7.656;2024-03-23T11:21:07;9.57;;;3.58;;
44925;SDS011;30662;51.210;7.656;2024-03-23T11:23:33;5.47;;;2.95;;
44925;SDS011;30662;51.210;7.656;2024-03-23T11:25:59;8.15;;;2.95;;
44925;SDS011;30662;51.210;7.656;2024-03-23T11:28:26;8.10;;;2.95;;
44925;SDS011;30662;51.210;7.656;2024-03-23T11:30:52;6.80;;;3.17;;
44925;SDS011;30662;51.210;7.656;2024-03-23T11:33:17;10.15;;;3.28;;
44925;SDS011;30662;51.210;7.656;2024-03-23T11:35:43;8.07;;;3.47;;
44925;SDS011;30662;51.210;7.656;2024-03-23T11:38:10;7.63;;;3.40;;
44925;SDS011;30662;51.210;7.656;2024-03-23T11:40:37;5.55;;;2.40;;
44925;SDS011;30662;51.210;7.656;2024-03-23T11:43:04;3.10;;;1.75;;
44925;SDS011;30662;51.210;7.656;2024-03-23T11:45:36;3.35;;;2.00;;
44925;SDS011;30662;51.210;7.656;2024-03-23T11:48:04;5.15;;;1.60;;
44925;SDS011;30662;51.210;7.656;2024-03-23T11:50:30;7.50;;;2.40;;
44925;SDS011;30662;51.210;7.656;2024-03-23T11:53:13;4.95;;;1.77;;
44925;SDS011;30662;51.210;7.656;2024-03-23T11:55:45;4.25;;;1.92;;
44925;SDS011;30662;51.210;7.656;2024-03-23T11:58:12;6.25;;;1.80;;
44925;SDS011;30662;51.210;7.656;2024-03-23T12:00:40;4.22;;;1.92;;
44925;SDS011;30662;51.210;7.656;2024-03-23T12:03:10;5.60;;;0.98;;
44925;SDS011;30662;51.210;7.656;2024-03-23T12:05:36;11.40;;;2.10;;
44925;SDS011;30662;51.210;7.656;2024-03-23T12:08:15;3.45;;;1.35;;
44925;SDS011;30662;51.210;7.656;2024-03-23T12:10:43;4.22;;;1.63;;
44925;SDS011;30662;51.210;7.656;2024-03-23T12:13:10;2.85;;;1.50;;
44925;SDS011;30662;51.210;7.656;2024-03-23T12:15:36;4.03;;;1.25;;
44925;SDS011;30662;51.210;7.656;2024-03-23T12:18:09;4.60;;;1.20;;
44925;SDS011;30662;51.210;7.656;2024-03-23T12:20:35;2.70;;;1.02;;
44925;SDS011;30662;51.210;7.656;2024-03-23T12:23:05;4.22;;;1.20;;
44925;SDS011;30662;51.210;7.656;2024-03-23T12:25:31;2.88;;;1.25;;
44925;SDS011;30662;51.210;7.656;2024-03-23T12:27:58;3.38;;;1.58;;
44925;SDS011;30662;51.210;7.656;2024-03-23T12:30:24;4.55;;;1.58;;
44925;SDS011;30662;51.210;7.656;2024-03-23T12:32:49;4.60;;;1.77;;
44925;SDS011;30662;51.210;7.656;2024-03-23T12:35:17;2.97;;;1.23;;
44925;SDS011;30662;51.210;7.656;2024-03-23T12:37:43;5.63;;;2.03;;
44925;SDS011;30662;51.210;7.656;2024-03-23T12:40:09;5.63;;;1.90;;
44925;SDS011;30662;51.210;7.656;2024-03-23T12:42:35;6.38;;;2.22;;
44925;SDS011;30662;51.210;7.656;2024-03-23T12:45:01;3.45;;;2.13;;
44925;SDS011;30662;51.210;7.656;2024-03-23T12:47:27;6.95;;;1.90;;
44925;SDS011;30662;51.210;7.656;2024-03-23T12:49:52;4.35;;;1.90;;
44925;SDS011;30662;51.210;7.656;2024-03-23T12:52:19;4.35;;;2.03;;
44925;SDS011;30662;51.210;7.656;2024-03-23T12:54:45;1.70;;;0.80;;
44925;SDS011;30662;51.210;7.656;2024-03-23T12:57:11;1.75;;;1.00;;
44925;SDS011;30662;51.210;7.656;2024-03-23T12:59:36;4.20;;;1.17;;
44925;SDS011;30662;51.210;7.656;2024-03-23T13:02:03;2.88;;;0.75;;
44925;SDS011;30662;51.210;7.656;2024-03-23T13:04:28;4.20;;;0.90;;
44925;SDS011;30662;51.210;7.656;2024-03-23T13:06:54;1.58;;;0.95;;
44925;SDS011;30662;51.210;7.656;2024-03-23T13:09:21;1.77;;;0.82;;
44925;SDS011;30662;51.210;7.656;2024-03-23T13:11:47;1.58;;;0.90;;
44925;SDS011;30662;51.210;7.656;2024-03-23T13:14:13;2.28;;;0.90;;
44925;SDS011;30662;51.210;7.656;2024-03-23T13:16:38;1.10;;;0.70;;
44925;SDS011;30662;51.210;7.656;2024-03-23T13:19:04;1.67;;;0.80;;
44925;SDS011;30662;51.210;7.656;2024-03-23T13:21:30;2.50;;;1.23;;
44925;SDS011;30662;51.210;7.656;2024-03-23T13:23:55;6.32;;;1.52;;
44925;SDS011;30662;51.210;7.656;2024-03-23T13:26:22;1.88;;;1.08;;
44925;SDS011;30662;51.210;7.656;2024-03-23T13:28:48;4.00;;;1.70;;
44925;SDS011;30662;51.210;7.656;2024-03-23T13:31:14;8.05;;;1.17;;
44925;SDS011;30662;51.210;7.656;2024-03-23T13:33:40;3.17;;;1.23;;
44925;SDS011;30662;51.210;7.656;2024-03-23T13:36:05;3.83;;;1.33;;
44925;SDS011;30662;51.210;7.656;2024-03-23T13:38:32;3.33;;;1.05;;
44925;SDS011;30662;51.210;7.656;2024-03-23T13:40:58;1.73;;;1.15;;
44925;SDS011;30662;51.210;7.656;2024-03-23T13:43:27;3.70;;;1.15;;
44925;SDS011;30662;51.210;7.656;2024-03-23T13:45:53;3.78;;;0.93;;
44925;SDS011;30662;51.210;7.656;2024-03-23T13:48:20;4.40;;;1.58;;
44925;SDS011;30662;51.210;7.656;2024-03-23T13:50:47;4.10;;;1.67;;
44925;SDS011;30662;51.210;7.656;2024-03-23T13:53:13;2.28;;;1.02;;
44925;SDS011;30662;51.210;7.656;2024-03-23T13:55:44;3.05;;;0.98;;
44925;SDS011;30662;51.210;7.656;2024-03-23T13:58:11;2.10;;;1.00;;
44925;SDS011;30662;51.210;7.656;2024-03-23T14:00:38;3.65;;;1.00;;
44925;SDS011;30662;51.210;7.656;2024-03-23T14:03:04;2.85;;;0.90;;
44925;SDS011;30662;51.210;7.656;2024-03-23T14:05:30;2.92;;;1.00;;
44925;SDS011;30662;51.210;7.656;2024-03-23T14:07:56;5.07;;;2.03;;
44925;SDS011;30662;51.210;7.656;2024-03-23T14:10:22;1.45;;;1.27;;
44925;SDS011;30662;51.210;7.656;2024-03-23T14:12:48;6.82;;;1.80;;
44925;SDS011;30662;51.210;7.656;2024-03-23T14:15:14;7.30;;;1.42;;
44925;SDS011;30662;51.210;7.656;2024-03-23T14:17:41;5.38;;;1.50;;
44925;SDS011;30662;51.210;7.656;2024-03-23T14:20:07;4.45;;;1.85;;
44925;SDS011;30662;51.210;7.656;2024-03-23T14:22:33;6.18;;;1.83;;
44925;SDS011;30662;51.210;7.656;2024-03-23T14:24:58;3.17;;;1.20;;
44925;SDS011;30662;51.210;7.656;2024-03-23T14:27:24;1.10;;;1.00;;
44925;SDS011;30662;51.210;7.656;2024-03-23T14:29:50;1.50;;;0.68;;
44925;SDS011;30662;51.210;7.656;2024-03-23T14:32:16;3.50;;;0.95;;
44925;SDS011;30662;51.210;7.656;2024-03-23T14:34:43;1.67;;;0.90;;
44925;SDS011;30662;51.210;7.656;2024-03-23T14:37:09;0.88;;;0.73;;
44925;SDS011;30662;51.210;7.656;2024-03-23T14:39:34;3.45;;;0.93;;
44925;SDS011;30662;51.210;7.656;2024-03-23T14:42:00;2.60;;;0.77;;
44925;SDS011;30662;51.210;7.656;2024-03-23T14:44:26;3.53;;;0.85;;
44925;SDS011;30662;51.210;7.656;2024-03-23T14:46:52;6.43;;;2.33;;
44925;SDS011;30662;51.210;7.656;2024-03-23T14:49:18;1.95;;;1.23;;
44925;SDS011;30662;51.210;7.656;2024-03-23T14:51:45;2.75;;;0.95;;
44925;SDS011;30662;51.210;7.656;2024-03-23T14:54:10;4.10;;;1.23;;
44925;SDS011;30662;51.210;7.656;2024-03-23T14:56:36;3.30;;;1.27;;
44925;SDS011;30662;51.210;7.656;2024-03-23T14:59:02;1.90;;;1.15;;
44925;SDS011;30662;51.210;7.656;2024-03-23T15:01:28;4.38;;;1.77;;
44925;SDS011;30662;51.210;7.656;2024-03-23T15:03:53;4.82;;;1.58;;
44925;SDS011;30662;51.210;7.656;2024-03-23T15:06:19;3.47;;;1.48;;
44925;SDS011;30662;51.210;7.656;2024-03-23T15:08:46;5.47;;;1.50;;
44925;SDS011;30662;51.210;7.656;2024-03-23T15:11:12;2.42;;;0.88;;
44925;SDS011;30662;51.210;7.656;2024-03-23T15:13:38;3.80;;;1.00;;
44925;SDS011;30662;51.210;7.656;2024-03-23T15:16:04;1.65;;;0.93;;
44925;SDS011;30662;51.210;7.656;2024-03-23T15:18:30;3.10;;;1.20;;
44925;SDS011;30662;51.210;7.656;2024-03-23T15:20:57;4.47;;;1.10;;
44925;SDS011;30662;51.210;7.656;2024-03-23T15:23:24;7.22;;;1.77;;
44925;SDS011;30662;51.210;7.656;2024-03-23T15:25:57;3.63;;;1.38;;
44925;SDS011;30662;51.210;7.656;2024-03-23T15:28:24;2.20;;;1.20;;
44925;SDS011;30662;51.210;7.656;2024-03-23T15:30:50;2.95;;;1.05;;
44925;SDS011;30662;51.210;7.656;2024-03-23T15:33:16;2.38;;;0.85;;
44925;SDS011;30662;51.210;7.656;2024-03-23T15:35:42;5.32;;;1.02;;